createdAt,value
2022-08-26T00:00:01.557Z,21.79
2022-08-26T00:00:11.454Z,21.79
2022-08-26T00:00:21.592Z,21.78
2022-08-26T00:00:31.576Z,21.79
2022-08-26T00:00:41.600Z,21.81
2022-08-26T00:00:51.404Z,21.79
2022-08-26T00:01:01.587Z,21.78
2022-08-26T00:01:11.655Z,21.76
2022-08-26T00:01:29.044Z,21.78
2022-08-26T00:01:31.739Z,21.78
2022-08-26T00:01:41.659Z,21.79
2022-08-26T00:01:51.492Z,21.78
2022-08-26T00:02:01.742Z,21.75
2022-08-26T00:02:11.571Z,21.78
2022-08-26T00:02:21.677Z,21.76
2022-08-26T00:02:31.589Z,21.76
2022-08-26T00:02:41.525Z,21.75
2022-08-26T00:02:51.586Z,21.76
2022-08-26T00:03:01.777Z,21.75
2022-08-26T00:03:11.702Z,21.76
2022-08-26T00:03:21.616Z,21.79
2022-08-26T00:03:31.624Z,21.74
2022-08-26T00:03:41.485Z,21.74
2022-08-26T00:03:51.494Z,21.76
2022-08-26T00:04:01.776Z,21.76
2022-08-26T00:04:11.820Z,21.78
2022-08-26T00:04:21.557Z,21.76
2022-08-26T00:04:31.612Z,21.74
2022-08-26T00:04:41.696Z,21.74
2022-08-26T00:04:51.686Z,21.74
2022-08-26T00:05:01.610Z,21.75
2022-08-26T00:05:11.477Z,21.75
2022-08-26T00:05:21.661Z,21.74
2022-08-26T00:05:31.732Z,21.74
2022-08-26T00:05:41.626Z,21.74
2022-08-26T00:05:51.518Z,21.72
2022-08-26T00:06:01.557Z,21.72
2022-08-26T00:06:11.699Z,21.72
2022-08-26T00:06:21.629Z,21.72
2022-08-26T00:06:31.689Z,21.72
2022-08-26T00:06:42.701Z,21.69
2022-08-26T00:06:51.598Z,21.69
2022-08-26T00:07:01.501Z,21.69
2022-08-26T00:07:11.721Z,21.69
2022-08-26T00:07:21.497Z,21.69
2022-08-26T00:07:31.645Z,21.69
2022-08-26T00:07:41.689Z,21.72
2022-08-26T00:07:51.529Z,21.67
2022-08-26T00:08:01.615Z,21.66
2022-08-26T00:08:13.056Z,21.69
2022-08-26T00:08:21.692Z,21.69
2022-08-26T00:08:31.717Z,21.71
2022-08-26T00:08:41.402Z,21.67
2022-08-26T00:08:51.662Z,21.67
2022-08-26T00:09:01.530Z,21.67
2022-08-26T00:09:11.475Z,21.66
2022-08-26T00:09:21.708Z,21.66
2022-08-26T00:09:31.528Z,21.67
2022-08-26T00:09:41.624Z,21.66
2022-08-26T00:09:54.501Z,21.66
2022-08-26T00:10:01.543Z,21.66
2022-08-26T00:10:11.544Z,21.66
2022-08-26T00:10:21.545Z,21.67
2022-08-26T00:10:31.557Z,21.64
2022-08-26T00:10:41.662Z,21.66
2022-08-26T00:10:51.616Z,21.61
2022-08-26T00:11:01.508Z,21.66
2022-08-26T00:11:11.448Z,21.64
2022-08-26T00:11:26.720Z,21.64
2022-08-26T00:11:31.640Z,21.61
2022-08-26T00:11:41.680Z,21.63
2022-08-26T00:11:51.434Z,21.60
2022-08-26T00:12:01.638Z,21.63
2022-08-26T00:12:12.333Z,21.64
2022-08-26T00:12:21.511Z,21.59
2022-08-26T00:12:37.282Z,21.61
2022-08-26T00:12:41.567Z,21.63
2022-08-26T00:12:51.580Z,21.61
2022-08-26T00:13:01.693Z,21.61
2022-08-26T00:13:11.413Z,21.59
2022-08-26T00:13:21.611Z,21.61
2022-08-26T00:13:31.644Z,21.61
2022-08-26T00:13:41.640Z,21.64
2022-08-26T00:13:51.407Z,21.61
2022-08-26T00:14:01.678Z,21.61
2022-08-26T00:14:11.409Z,21.60
2022-08-26T00:14:21.620Z,21.64
2022-08-26T00:14:31.644Z,21.60
2022-08-26T00:14:41.544Z,21.60
2022-08-26T00:14:51.615Z,21.60
2022-08-26T00:15:01.544Z,21.61
2022-08-26T00:15:11.550Z,21.63
2022-08-26T00:15:21.449Z,21.60
2022-08-26T00:16:00.312Z,21.54
2022-08-26T00:16:15.468Z,21.59
2022-08-26T00:16:15.832Z,21.57
2022-08-26T00:16:16.206Z,21.57
2022-08-26T00:16:16.595Z,21.56
2022-08-26T00:16:21.685Z,21.60
2022-08-26T00:16:31.695Z,21.56
2022-08-26T00:16:47.328Z,21.61
2022-08-26T00:16:51.696Z,21.60
2022-08-26T00:17:01.661Z,21.54
2022-08-26T00:17:11.592Z,21.57
2022-08-26T00:17:21.592Z,21.60
2022-08-26T00:17:31.670Z,21.59
2022-08-26T00:17:41.453Z,21.61
2022-08-26T00:17:51.449Z,21.63
2022-08-26T00:18:01.658Z,21.61
2022-08-26T00:18:16.708Z,21.60
2022-08-26T00:18:22.706Z,21.59
2022-08-26T00:18:31.628Z,21.54
2022-08-26T00:18:41.691Z,21.59
2022-08-26T00:18:51.662Z,21.61
2022-08-26T00:19:01.498Z,21.57
2022-08-26T00:19:11.618Z,21.59
2022-08-26T00:19:21.516Z,21.59
2022-08-26T00:19:31.595Z,21.56
2022-08-26T00:19:41.710Z,21.57
2022-08-26T00:19:51.689Z,21.56
2022-08-26T00:20:01.550Z,21.59
2022-08-26T00:20:11.642Z,21.56
2022-08-26T00:20:21.562Z,21.57
2022-08-26T00:20:31.444Z,21.56
2022-08-26T00:20:41.457Z,21.57
2022-08-26T00:20:51.630Z,21.56
2022-08-26T00:21:01.621Z,21.57
2022-08-26T00:21:11.487Z,21.56
2022-08-26T00:21:21.585Z,21.59
2022-08-26T00:21:31.535Z,21.54
2022-08-26T00:21:41.532Z,21.53
2022-08-26T00:21:51.552Z,21.56
2022-08-26T00:22:01.486Z,21.54
2022-08-26T00:22:11.594Z,21.54
2022-08-26T00:22:21.753Z,21.54
2022-08-26T00:22:31.645Z,21.56
2022-08-26T00:22:41.473Z,21.53
2022-08-26T00:22:51.539Z,21.54
2022-08-26T00:23:01.671Z,21.54
2022-08-26T00:23:11.559Z,21.54
2022-08-26T00:23:24.080Z,21.59
2022-08-26T00:23:31.471Z,21.53
2022-08-26T00:23:41.714Z,21.54
2022-08-26T00:23:51.674Z,21.51
2022-08-26T00:24:01.611Z,21.54
2022-08-26T00:24:11.552Z,21.54
2022-08-26T00:24:21.595Z,21.56
2022-08-26T00:24:31.419Z,21.51
2022-08-26T00:24:47.908Z,21.54
2022-08-26T00:24:51.700Z,21.54
2022-08-26T00:25:01.613Z,21.56
2022-08-26T00:25:11.515Z,21.54
2022-08-26T00:25:21.433Z,21.56
2022-08-26T00:25:31.594Z,21.53
2022-08-26T00:25:42.466Z,21.56
2022-08-26T00:25:51.627Z,21.54
2022-08-26T00:26:01.466Z,21.56
2022-08-26T00:26:11.529Z,21.53
2022-08-26T00:26:21.580Z,21.54
2022-08-26T00:26:31.536Z,21.54
2022-08-26T00:26:41.688Z,21.54
2022-08-26T00:26:51.810Z,21.53
2022-08-26T00:27:01.511Z,21.54
2022-08-26T00:27:11.474Z,21.54
2022-08-26T00:27:21.637Z,21.57
2022-08-26T00:27:31.744Z,21.54
2022-08-26T00:27:41.645Z,21.53
2022-08-26T00:27:51.459Z,21.56
2022-08-26T00:28:01.596Z,21.54
2022-08-26T00:28:11.528Z,21.54
2022-08-26T00:28:21.564Z,21.57
2022-08-26T00:28:31.730Z,21.56
2022-08-26T00:28:41.658Z,21.53
2022-08-26T00:28:51.431Z,21.56
2022-08-26T00:29:01.668Z,21.54
2022-08-26T00:29:11.609Z,21.53
2022-08-26T00:29:21.571Z,21.54
2022-08-26T00:29:31.927Z,21.54
2022-08-26T00:29:41.669Z,21.54
2022-08-26T00:29:51.496Z,21.50
2022-08-26T00:30:01.468Z,21.53
2022-08-26T00:30:11.516Z,21.53
2022-08-26T00:30:22.948Z,21.54
2022-08-26T00:30:31.440Z,21.51
2022-08-26T00:30:41.658Z,21.51
2022-08-26T00:30:51.618Z,21.51
2022-08-26T00:31:01.526Z,21.46
2022-08-26T00:31:11.567Z,21.51
2022-08-26T00:31:21.661Z,21.50
2022-08-26T00:31:31.554Z,21.48
2022-08-26T00:31:41.675Z,21.51
2022-08-26T00:31:51.474Z,21.48
2022-08-26T00:32:01.731Z,21.48
2022-08-26T00:32:11.642Z,21.48
2022-08-26T00:32:21.433Z,21.48
2022-08-26T00:32:31.600Z,21.48
2022-08-26T00:32:41.613Z,21.46
2022-08-26T00:32:51.465Z,21.46
2022-08-26T00:33:01.575Z,21.50
2022-08-26T00:33:11.481Z,21.46
2022-08-26T00:33:21.648Z,21.46
2022-08-26T00:33:31.482Z,21.45
2022-08-26T00:33:41.542Z,21.45
2022-08-26T00:33:51.732Z,21.44
2022-08-26T00:34:01.711Z,21.45
2022-08-26T00:34:12.032Z,21.46
2022-08-26T00:34:21.738Z,21.44
2022-08-26T00:34:31.576Z,21.42
2022-08-26T00:34:41.573Z,21.42
2022-08-26T00:34:51.519Z,21.44
2022-08-26T00:35:01.580Z,21.45
2022-08-26T00:35:11.460Z,21.42
2022-08-26T00:35:21.611Z,21.44
2022-08-26T00:35:31.584Z,21.41
2022-08-26T00:35:43.810Z,21.39
2022-08-26T00:35:51.680Z,21.38
2022-08-26T00:36:01.561Z,21.39
2022-08-26T00:36:20.058Z,21.39
2022-08-26T00:36:21.661Z,21.38
2022-08-26T00:36:31.430Z,21.36
2022-08-26T00:36:41.447Z,21.36
2022-08-26T00:36:51.812Z,21.35
2022-08-26T00:37:01.580Z,21.36
2022-08-26T00:37:15.656Z,21.35
2022-08-26T00:37:21.648Z,21.34
2022-08-26T00:37:31.710Z,21.34
2022-08-26T00:37:41.569Z,21.32
2022-08-26T00:37:51.674Z,21.34
2022-08-26T00:38:01.547Z,21.35
2022-08-26T00:38:11.644Z,21.34
2022-08-26T00:38:21.546Z,21.34
2022-08-26T00:38:31.569Z,21.35
2022-08-26T00:38:41.513Z,21.34
2022-08-26T00:38:51.576Z,21.32
2022-08-26T00:39:01.893Z,21.30
2022-08-26T00:39:11.532Z,21.30
2022-08-26T00:39:21.899Z,21.32
2022-08-26T00:39:31.722Z,21.30
2022-08-26T00:39:41.654Z,21.34
2022-08-26T00:39:51.532Z,21.34
2022-08-26T00:40:01.669Z,21.35
2022-08-26T00:40:11.684Z,21.27
2022-08-26T00:40:21.780Z,21.32
2022-08-26T00:40:31.750Z,21.35
2022-08-26T00:40:41.459Z,21.29
2022-08-26T00:40:51.524Z,21.30
2022-08-26T00:41:01.661Z,21.29
2022-08-26T00:41:11.591Z,21.34
2022-08-26T00:41:21.414Z,21.29
2022-08-26T00:41:31.541Z,21.34
2022-08-26T00:41:41.494Z,21.32
2022-08-26T00:41:51.661Z,21.32
2022-08-26T00:42:01.567Z,21.34
2022-08-26T00:42:11.703Z,21.35
2022-08-26T00:42:21.459Z,21.30
2022-08-26T00:42:31.635Z,21.34
2022-08-26T00:42:45.889Z,21.29
2022-08-26T00:42:51.607Z,21.32
2022-08-26T00:43:01.558Z,21.30
2022-08-26T00:43:11.633Z,21.30
2022-08-26T00:43:21.570Z,21.32
2022-08-26T00:43:31.478Z,21.29
2022-08-26T00:43:47.615Z,21.30
2022-08-26T00:43:51.463Z,21.32
2022-08-26T00:44:01.663Z,21.30
2022-08-26T00:44:11.632Z,21.32
2022-08-26T00:44:21.649Z,21.32
2022-08-26T00:44:31.601Z,21.32
2022-08-26T00:44:41.422Z,21.35
2022-08-26T00:44:51.512Z,21.34
2022-08-26T00:45:01.422Z,21.35
2022-08-26T00:45:11.799Z,21.34
2022-08-26T00:45:21.568Z,21.32
2022-08-26T00:45:31.629Z,21.32
2022-08-26T00:45:41.600Z,21.30
2022-08-26T00:45:51.530Z,21.32
2022-08-26T00:46:02.419Z,21.32
2022-08-26T00:46:11.720Z,21.34
2022-08-26T00:46:21.651Z,21.32
2022-08-26T00:46:31.600Z,21.34
2022-08-26T00:46:46.680Z,21.35
2022-08-26T00:46:51.668Z,21.35
2022-08-26T00:47:01.568Z,21.35
2022-08-26T00:47:11.695Z,21.36
2022-08-26T00:47:21.718Z,21.34
2022-08-26T00:47:31.489Z,21.32
2022-08-26T00:47:41.729Z,21.32
2022-08-26T00:47:51.478Z,21.30
2022-08-26T00:48:01.642Z,21.32
2022-08-26T00:48:11.467Z,21.34
2022-08-26T00:48:21.450Z,21.34
2022-08-26T00:48:31.894Z,21.30
2022-08-26T00:48:41.600Z,21.34
2022-08-26T00:48:51.500Z,21.32
2022-08-26T00:49:01.612Z,21.34
2022-08-26T00:49:12.164Z,21.34
2022-08-26T00:49:21.615Z,21.29
2022-08-26T00:49:31.664Z,21.32
2022-08-26T00:49:41.620Z,21.34
2022-08-26T00:49:51.669Z,21.34
2022-08-26T00:50:01.471Z,21.34
2022-08-26T00:50:11.515Z,21.35
2022-08-26T00:50:21.542Z,21.35
2022-08-26T00:50:31.511Z,21.34
2022-08-26T00:50:41.500Z,21.35
2022-08-26T00:50:51.689Z,21.34
2022-08-26T00:51:01.441Z,21.34
2022-08-26T00:51:11.667Z,21.34
2022-08-26T00:51:21.661Z,21.30
2022-08-26T00:51:31.414Z,21.32
2022-08-26T00:51:41.649Z,21.35
2022-08-26T00:51:51.700Z,21.30
2022-08-26T00:52:01.689Z,21.35
2022-08-26T00:52:12.099Z,21.34
2022-08-26T00:52:21.671Z,21.32
2022-08-26T00:52:31.654Z,21.34
2022-08-26T00:52:41.461Z,21.35
2022-08-26T00:52:51.699Z,21.32
2022-08-26T00:53:01.592Z,21.32
2022-08-26T00:53:11.454Z,21.35
2022-08-26T00:53:21.466Z,21.36
2022-08-26T00:53:31.451Z,21.35
2022-08-26T00:53:41.602Z,21.34
2022-08-26T00:53:51.522Z,21.34
2022-08-26T00:54:01.635Z,21.30
2022-08-26T00:54:11.443Z,21.29
2022-08-26T00:54:21.460Z,21.32
2022-08-26T00:54:31.608Z,21.34
2022-08-26T00:54:42.365Z,21.35
2022-08-26T00:54:51.576Z,21.32
2022-08-26T00:55:01.568Z,21.34
2022-08-26T00:55:11.477Z,21.30
2022-08-26T00:55:21.694Z,21.34
2022-08-26T00:55:34.523Z,21.34
2022-08-26T00:55:41.442Z,21.30
2022-08-26T00:55:51.679Z,21.34
2022-08-26T00:56:01.616Z,21.34
2022-08-26T00:56:11.645Z,21.32
2022-08-26T00:56:21.526Z,21.34
2022-08-26T00:56:31.426Z,21.35
2022-08-26T00:56:41.639Z,21.34
2022-08-26T00:56:51.488Z,21.35
2022-08-26T00:57:01.695Z,21.35
2022-08-26T00:57:16.082Z,21.34
2022-08-26T00:57:21.596Z,21.35
2022-08-26T00:57:31.790Z,21.34
2022-08-26T00:57:41.604Z,21.35
2022-08-26T00:57:51.424Z,21.35
2022-08-26T00:58:01.675Z,21.34
2022-08-26T00:58:11.699Z,21.36
2022-08-26T00:58:21.480Z,21.30
2022-08-26T00:58:31.494Z,21.32
2022-08-26T00:58:41.492Z,21.35
2022-08-26T00:58:51.538Z,21.36
2022-08-26T00:59:01.601Z,21.36
2022-08-26T00:59:11.480Z,21.32
2022-08-26T00:59:21.537Z,21.34
2022-08-26T00:59:32.846Z,21.34
2022-08-26T00:59:41.512Z,21.35
2022-08-26T00:59:51.634Z,21.38
2022-08-26T01:00:01.705Z,21.34
2022-08-26T01:00:11.635Z,21.35
2022-08-26T01:00:21.483Z,21.36
2022-08-26T01:00:31.437Z,21.35
2022-08-26T01:00:41.529Z,21.36
2022-08-26T01:00:51.444Z,21.34
2022-08-26T01:01:01.616Z,21.35
2022-08-26T01:01:11.698Z,21.35
2022-08-26T01:01:23.016Z,21.35
2022-08-26T01:01:31.771Z,21.34
2022-08-26T01:01:41.494Z,21.35
2022-08-26T01:01:51.602Z,21.35
2022-08-26T01:02:02.905Z,21.32
2022-08-26T01:02:19.977Z,21.35
2022-08-26T01:02:21.900Z,21.34
2022-08-26T01:02:31.625Z,21.36
2022-08-26T01:02:46.908Z,21.35
2022-08-26T01:02:51.515Z,21.34
2022-08-26T01:03:01.711Z,21.34
2022-08-26T01:03:12.679Z,21.32
2022-08-26T01:03:21.451Z,21.32
2022-08-26T01:03:31.425Z,21.35
2022-08-26T01:03:41.660Z,21.36
2022-08-26T01:03:51.497Z,21.36
2022-08-26T01:04:01.417Z,21.30
2022-08-26T01:04:11.654Z,21.34
2022-08-26T01:04:21.492Z,21.35
2022-08-26T01:04:31.454Z,21.38
2022-08-26T01:04:41.514Z,21.34
2022-08-26T01:04:55.663Z,21.34
2022-08-26T01:05:01.519Z,21.34
2022-08-26T01:05:11.540Z,21.34
2022-08-26T01:05:21.611Z,21.29
2022-08-26T01:05:31.608Z,21.32
2022-08-26T01:05:41.490Z,21.29
2022-08-26T01:05:51.590Z,21.30
2022-08-26T01:06:01.619Z,21.35
2022-08-26T01:06:13.014Z,21.34
2022-08-26T01:06:21.557Z,21.30
2022-08-26T01:06:31.596Z,21.32
2022-08-26T01:06:41.456Z,21.35
2022-08-26T01:06:51.640Z,21.34
2022-08-26T01:07:01.896Z,21.32
2022-08-26T01:07:11.587Z,21.32
2022-08-26T01:07:21.407Z,21.32
2022-08-26T01:07:31.564Z,21.30
2022-08-26T01:07:41.534Z,21.32
2022-08-26T01:07:51.523Z,21.32
2022-08-26T01:08:01.544Z,21.30
2022-08-26T01:08:11.618Z,21.34
2022-08-26T01:08:21.635Z,21.32
2022-08-26T01:08:31.547Z,21.29
2022-08-26T01:08:41.452Z,21.30
2022-08-26T01:08:51.573Z,21.29
2022-08-26T01:09:01.549Z,21.29
2022-08-26T01:09:11.509Z,21.27
2022-08-26T01:09:21.542Z,21.30
2022-08-26T01:09:31.472Z,21.27
2022-08-26T01:09:41.414Z,21.32
2022-08-26T01:09:51.428Z,21.30
2022-08-26T01:10:01.645Z,21.29
2022-08-26T01:10:11.518Z,21.29
2022-08-26T01:10:21.652Z,21.26
2022-08-26T01:10:31.654Z,21.29
2022-08-26T01:10:41.497Z,21.27
2022-08-26T01:10:51.446Z,21.26
2022-08-26T01:11:01.571Z,21.27
2022-08-26T01:11:11.544Z,21.29
2022-08-26T01:11:21.569Z,21.30
2022-08-26T01:11:31.649Z,21.26
2022-08-26T01:11:41.647Z,21.27
2022-08-26T01:11:51.652Z,21.24
2022-08-26T01:12:01.587Z,21.26
2022-08-26T01:12:11.511Z,21.24
2022-08-26T01:12:22.116Z,21.24
2022-08-26T01:12:31.430Z,21.23
2022-08-26T01:12:41.619Z,21.21
2022-08-26T01:12:51.606Z,21.24
2022-08-26T01:13:01.576Z,21.23
2022-08-26T01:13:11.423Z,21.23
2022-08-26T01:13:21.456Z,21.24
2022-08-26T01:13:31.620Z,21.23
2022-08-26T01:13:41.526Z,21.21
2022-08-26T01:13:51.584Z,21.21
2022-08-26T01:14:01.681Z,21.21
2022-08-26T01:14:11.498Z,21.20
2022-08-26T01:14:21.564Z,21.19
2022-08-26T01:14:31.549Z,21.21
2022-08-26T01:14:41.532Z,21.20
2022-08-26T01:14:51.712Z,21.19
2022-08-26T01:15:01.449Z,21.19
2022-08-26T01:15:11.690Z,21.20
2022-08-26T01:15:21.705Z,21.17
2022-08-26T01:15:32.950Z,21.17
2022-08-26T01:15:41.484Z,21.17
2022-08-26T01:15:51.656Z,21.14
2022-08-26T01:16:01.484Z,21.17
2022-08-26T01:16:11.438Z,21.16
2022-08-26T01:16:21.462Z,21.20
2022-08-26T01:16:31.820Z,21.16
2022-08-26T01:16:42.374Z,21.16
2022-08-26T01:16:51.589Z,21.16
2022-08-26T01:17:01.657Z,21.16
2022-08-26T01:17:11.554Z,21.14
2022-08-26T01:17:21.567Z,21.17
2022-08-26T01:17:31.421Z,21.16
2022-08-26T01:17:41.643Z,21.16
2022-08-26T01:17:51.583Z,21.16
2022-08-26T01:18:01.729Z,21.16
2022-08-26T01:18:11.584Z,21.16
2022-08-26T01:18:21.554Z,21.16
2022-08-26T01:18:31.680Z,21.11
2022-08-26T01:18:41.564Z,21.16
2022-08-26T01:18:51.483Z,21.14
2022-08-26T01:19:01.642Z,21.16
2022-08-26T01:19:11.622Z,21.14
2022-08-26T01:19:21.535Z,21.13
2022-08-26T01:19:31.423Z,21.13
2022-08-26T01:19:41.536Z,21.11
2022-08-26T01:19:51.675Z,21.11
2022-08-26T01:20:01.527Z,21.14
2022-08-26T01:20:11.566Z,21.16
2022-08-26T01:20:21.560Z,21.13
2022-08-26T01:20:31.567Z,21.14
2022-08-26T01:20:41.596Z,21.13
2022-08-26T01:20:51.533Z,21.13
2022-08-26T01:21:01.631Z,21.11
2022-08-26T01:21:11.573Z,21.11
2022-08-26T01:21:21.614Z,21.09
2022-08-26T01:21:31.482Z,21.11
2022-08-26T01:21:41.622Z,21.09
2022-08-26T01:21:51.545Z,21.13
2022-08-26T01:22:01.409Z,21.11
2022-08-26T01:22:11.493Z,21.09
2022-08-26T01:22:21.464Z,21.11
2022-08-26T01:22:31.440Z,21.11
2022-08-26T01:22:41.558Z,21.09
2022-08-26T01:22:52.326Z,21.11
2022-08-26T01:23:03.287Z,21.11
2022-08-26T01:23:11.581Z,21.08
2022-08-26T01:23:21.742Z,21.06
2022-08-26T01:23:31.422Z,21.13
2022-08-26T01:23:41.500Z,21.09
2022-08-26T01:23:51.510Z,21.08
2022-08-26T01:24:01.609Z,21.08
2022-08-26T01:24:11.518Z,21.09
2022-08-26T01:24:21.556Z,21.05
2022-08-26T01:24:31.661Z,21.06
2022-08-26T01:24:41.575Z,21.11
2022-08-26T01:24:51.535Z,21.06
2022-08-26T01:25:03.702Z,21.09
2022-08-26T01:25:11.684Z,21.08
2022-08-26T01:25:21.628Z,21.06
2022-08-26T01:25:31.641Z,21.11
2022-08-26T01:25:43.047Z,21.08
2022-08-26T01:25:51.466Z,21.06
2022-08-26T01:26:01.479Z,21.06
2022-08-26T01:26:19.786Z,21.06
2022-08-26T01:26:21.407Z,21.08
2022-08-26T01:26:31.601Z,21.08
2022-08-26T01:26:41.459Z,21.05
2022-08-26T01:26:51.413Z,21.06
2022-08-26T01:27:01.492Z,21.06
2022-08-26T01:27:11.538Z,21.08
2022-08-26T01:27:21.719Z,21.09
2022-08-26T01:27:32.537Z,21.06
2022-08-26T01:27:41.483Z,21.08
2022-08-26T01:27:51.484Z,21.08
2022-08-26T01:28:01.416Z,21.04
2022-08-26T01:28:11.639Z,21.09
2022-08-26T01:28:21.448Z,21.06
2022-08-26T01:28:31.691Z,21.06
2022-08-26T01:28:41.549Z,21.05
2022-08-26T01:28:51.836Z,21.08
2022-08-26T01:29:01.536Z,21.06
2022-08-26T01:29:11.641Z,21.05
2022-08-26T01:29:21.558Z,21.09
2022-08-26T01:29:31.477Z,21.05
2022-08-26T01:29:41.509Z,21.05
2022-08-26T01:29:51.759Z,21.06
2022-08-26T01:30:01.552Z,21.05
2022-08-26T01:30:11.644Z,21.08
2022-08-26T01:30:21.609Z,21.06
2022-08-26T01:30:31.651Z,21.05
2022-08-26T01:30:41.590Z,21.06
2022-08-26T01:30:51.517Z,21.04
2022-08-26T01:31:01.584Z,21.05
2022-08-26T01:31:11.527Z,21.05
2022-08-26T01:31:21.637Z,21.06
2022-08-26T01:31:31.555Z,21.05
2022-08-26T01:31:41.686Z,21.06
2022-08-26T01:31:51.744Z,21.05
2022-08-26T01:32:01.517Z,21.04
2022-08-26T01:32:11.437Z,21.02
2022-08-26T01:32:21.650Z,21.05
2022-08-26T01:32:31.584Z,21.04
2022-08-26T01:32:41.440Z,21.04
2022-08-26T01:32:51.621Z,21.04
2022-08-26T01:33:01.496Z,21.04
2022-08-26T01:33:11.460Z,21.06
2022-08-26T01:33:21.588Z,21.01
2022-08-26T01:33:31.480Z,21.08
2022-08-26T01:33:42.206Z,21.06
2022-08-26T01:33:51.551Z,21.02
2022-08-26T01:34:01.469Z,21.04
2022-08-26T01:34:11.514Z,21.04
2022-08-26T01:34:21.542Z,21.08
2022-08-26T01:34:31.414Z,21.05
2022-08-26T01:34:41.541Z,21.04
2022-08-26T01:34:51.504Z,21.05
2022-08-26T01:35:01.716Z,21.06
2022-08-26T01:35:11.683Z,21.06
2022-08-26T01:35:21.578Z,21.05
2022-08-26T01:35:31.544Z,21.05
2022-08-26T01:35:41.628Z,21.05
2022-08-26T01:35:51.408Z,21.04
2022-08-26T01:36:01.512Z,21.06
2022-08-26T01:36:11.519Z,21.02
2022-08-26T01:36:21.541Z,21.04
2022-08-26T01:36:31.571Z,21.04
2022-08-26T01:36:41.461Z,21.02
2022-08-26T01:36:51.814Z,21.04
2022-08-26T01:37:01.580Z,21.04
2022-08-26T01:37:11.722Z,21.02
2022-08-26T01:37:21.582Z,21.02
2022-08-26T01:37:31.461Z,21.02
2022-08-26T01:37:41.474Z,20.99
2022-08-26T01:37:51.637Z,21.04
2022-08-26T01:38:01.615Z,21.02
2022-08-26T01:38:11.498Z,21.02
2022-08-26T01:38:21.460Z,20.98
2022-08-26T01:38:31.700Z,21.05
2022-08-26T01:38:41.541Z,21.01
2022-08-26T01:38:51.504Z,21.01
2022-08-26T01:39:01.528Z,21.01
2022-08-26T01:39:11.619Z,20.99
2022-08-26T01:39:21.422Z,21.01
2022-08-26T01:39:31.665Z,21.01
2022-08-26T01:39:41.513Z,20.99
2022-08-26T01:39:51.428Z,20.99
2022-08-26T01:40:01.571Z,20.99
2022-08-26T01:40:11.513Z,20.99
2022-08-26T01:40:21.704Z,20.98
2022-08-26T01:40:31.646Z,20.99
2022-08-26T01:40:41.666Z,20.98
2022-08-26T01:40:51.637Z,20.96
2022-08-26T01:41:01.449Z,20.98
2022-08-26T01:41:19.528Z,20.96
2022-08-26T01:41:21.697Z,20.96
2022-08-26T01:41:31.443Z,20.93
2022-08-26T01:41:44.084Z,20.96
2022-08-26T01:41:53.539Z,20.96
2022-08-26T01:42:03.329Z,20.95
2022-08-26T01:42:11.683Z,20.96
2022-08-26T01:42:21.407Z,20.95
2022-08-26T01:42:31.435Z,20.96
2022-08-26T01:42:41.462Z,20.91
2022-08-26T01:42:51.550Z,20.96
2022-08-26T01:43:01.651Z,20.93
2022-08-26T01:43:11.622Z,20.95
2022-08-26T01:43:21.601Z,20.93
2022-08-26T01:43:31.630Z,20.96
2022-08-26T01:43:41.464Z,20.96
2022-08-26T01:43:51.656Z,20.96
2022-08-26T01:44:01.590Z,20.95
2022-08-26T01:44:11.508Z,20.95
2022-08-26T01:44:21.451Z,20.90
2022-08-26T01:44:31.586Z,20.95
2022-08-26T01:44:41.530Z,20.96
2022-08-26T01:44:51.626Z,20.95
2022-08-26T01:45:01.545Z,20.95
2022-08-26T01:45:11.585Z,20.95
2022-08-26T01:45:21.591Z,20.91
2022-08-26T01:45:31.633Z,20.91
2022-08-26T01:45:41.467Z,20.93
2022-08-26T01:45:51.593Z,20.91
2022-08-26T01:46:01.725Z,20.90
2022-08-26T01:46:11.488Z,20.91
2022-08-26T01:46:21.454Z,20.90
2022-08-26T01:46:31.643Z,20.90
2022-08-26T01:46:41.562Z,20.90
2022-08-26T01:46:51.708Z,20.91
2022-08-26T01:47:01.656Z,20.90
2022-08-26T01:47:11.445Z,20.90
2022-08-26T01:47:21.650Z,20.89
2022-08-26T01:47:31.560Z,20.90
2022-08-26T01:47:41.683Z,20.91
2022-08-26T01:47:56.650Z,20.90
2022-08-26T01:48:01.500Z,20.90
2022-08-26T01:48:11.662Z,20.87
2022-08-26T01:48:21.531Z,20.86
2022-08-26T01:48:31.422Z,20.90
2022-08-26T01:48:41.581Z,20.89
2022-08-26T01:48:52.369Z,20.90
2022-08-26T01:49:01.461Z,20.87
2022-08-26T01:49:11.510Z,20.89
2022-08-26T01:49:21.422Z,20.89
2022-08-26T01:49:31.968Z,20.87
2022-08-26T01:49:41.681Z,20.89
2022-08-26T01:49:51.471Z,20.87
2022-08-26T01:50:02.852Z,20.89
2022-08-26T01:50:11.449Z,20.87
2022-08-26T01:50:27.661Z,20.89
2022-08-26T01:50:31.393Z,20.86
2022-08-26T01:50:41.445Z,20.89
2022-08-26T01:50:51.564Z,20.87
2022-08-26T01:51:01.646Z,20.87
2022-08-26T01:51:11.575Z,20.86
2022-08-26T01:51:21.607Z,20.89
2022-08-26T01:51:31.702Z,20.86
2022-08-26T01:51:41.438Z,20.89
2022-08-26T01:51:51.867Z,20.86
2022-08-26T01:52:01.672Z,20.89
2022-08-26T01:52:11.761Z,20.87
2022-08-26T01:52:21.658Z,20.86
2022-08-26T01:52:31.734Z,20.87
2022-08-26T01:52:41.579Z,20.83
2022-08-26T01:52:54.381Z,20.84
2022-08-26T01:53:01.529Z,20.81
2022-08-26T01:53:11.901Z,20.83
2022-08-26T01:53:21.694Z,20.84
2022-08-26T01:53:31.456Z,20.86
2022-08-26T01:53:41.787Z,20.83
2022-08-26T01:53:51.677Z,20.86
2022-08-26T01:54:01.548Z,20.83
2022-08-26T01:54:12.013Z,20.81
2022-08-26T01:54:23.011Z,20.83
2022-08-26T01:54:31.454Z,20.80
2022-08-26T01:54:41.486Z,20.81
2022-08-26T01:54:51.684Z,20.80
2022-08-26T01:55:01.584Z,20.81
2022-08-26T01:55:11.404Z,20.83
2022-08-26T01:55:32.415Z,20.83
2022-08-26T01:55:32.902Z,20.81
2022-08-26T01:55:41.639Z,20.80
2022-08-26T01:55:51.593Z,20.84
2022-08-26T01:56:01.604Z,20.79
2022-08-26T01:56:11.510Z,20.81
2022-08-26T01:56:21.655Z,20.80
2022-08-26T01:56:33.176Z,20.79
2022-08-26T01:56:41.526Z,20.81
2022-08-26T01:56:51.631Z,20.80
2022-08-26T01:57:01.531Z,20.80
2022-08-26T01:57:11.689Z,20.79
2022-08-26T01:57:21.457Z,20.83
2022-08-26T01:57:31.658Z,20.80
2022-08-26T01:57:41.473Z,20.79
2022-08-26T01:57:51.405Z,20.79
2022-08-26T01:58:01.524Z,20.79
2022-08-26T01:58:11.567Z,20.79
2022-08-26T01:58:21.583Z,20.83
2022-08-26T01:58:31.416Z,20.79
2022-08-26T01:58:41.465Z,20.77
2022-08-26T01:58:51.420Z,20.80
2022-08-26T01:59:01.452Z,20.80
2022-08-26T01:59:12.152Z,20.79
2022-08-26T01:59:21.532Z,20.80
2022-08-26T01:59:31.654Z,20.80
2022-08-26T01:59:41.410Z,20.81
2022-08-26T01:59:51.488Z,20.77
2022-08-26T02:00:01.689Z,20.79
2022-08-26T02:00:11.450Z,20.81
2022-08-26T02:00:21.511Z,20.80
2022-08-26T02:00:31.470Z,20.80
2022-08-26T02:00:41.621Z,20.80
2022-08-26T02:00:51.622Z,20.81
2022-08-26T02:01:02.551Z,20.80
2022-08-26T02:01:11.600Z,20.79
2022-08-26T02:01:21.647Z,20.80
2022-08-26T02:01:31.532Z,20.80
2022-08-26T02:01:41.525Z,20.80
2022-08-26T02:01:51.701Z,20.80
2022-08-26T02:02:01.544Z,20.79
2022-08-26T02:02:11.607Z,20.80
2022-08-26T02:02:21.421Z,20.79
2022-08-26T02:02:31.671Z,20.79
2022-08-26T02:02:41.663Z,20.80
2022-08-26T02:02:51.717Z,20.77
2022-08-26T02:03:01.583Z,20.79
2022-08-26T02:03:11.593Z,20.80
2022-08-26T02:03:21.596Z,20.79
2022-08-26T02:03:31.478Z,20.80
2022-08-26T02:03:42.295Z,20.79
2022-08-26T02:03:51.605Z,20.81
2022-08-26T02:04:01.588Z,20.79
2022-08-26T02:04:11.570Z,20.80
2022-08-26T02:04:21.663Z,20.79
2022-08-26T02:04:31.560Z,20.80
2022-08-26T02:04:41.791Z,20.81
2022-08-26T02:04:51.636Z,20.81
2022-08-26T02:05:01.514Z,20.79
2022-08-26T02:05:11.644Z,20.79
2022-08-26T02:05:21.511Z,20.80
2022-08-26T02:05:31.723Z,20.83
2022-08-26T02:05:41.463Z,20.81
2022-08-26T02:05:51.673Z,20.79
2022-08-26T02:06:01.721Z,20.80
2022-08-26T02:06:11.569Z,20.81
2022-08-26T02:06:21.459Z,20.79
2022-08-26T02:06:31.730Z,20.79
2022-08-26T02:06:41.689Z,20.77
2022-08-26T02:06:51.616Z,20.77
2022-08-26T02:07:01.604Z,20.79
2022-08-26T02:07:11.544Z,20.80
2022-08-26T02:07:21.646Z,20.80
2022-08-26T02:07:31.605Z,20.76
2022-08-26T02:07:41.539Z,20.80
2022-08-26T02:07:51.634Z,20.79
2022-08-26T02:08:01.543Z,20.81
2022-08-26T02:08:11.651Z,20.80
2022-08-26T02:08:24.722Z,20.80
2022-08-26T02:08:31.645Z,20.80
2022-08-26T02:08:41.683Z,20.76